Login to view Products
 
Saturday, April 20, 2019 (13:14 UTC)
Abu Dhabi International Airport
Last Updated: 20-Apr-2019 (13:13Z)
Wind Dir/Speed: N at 14 kt
Temperature: 34.1°C
Rel. Humidity: 27 %
Pressure: 1005.6 hPa
Visibility: 10000 m
ACTUALS:
  • METAR OMAA 201300Z 33015KT CAVOK 35/12 Q1005 NOSIG
  • TAF OMAA 201100Z 2012/2118 33013KT 8000 NSC BECMG 2015/2017 03008KT BECMG 2022/2100 15008KT BECMG 2108/2110 24008KT BECMG 2110/2112 31012KT BECMG 2116/2118 02008KT=
D:\Input Parser\Destinations\Final\11\OMAAL12181100681111464.txt
1